sensor_id;sensor_type;location;lat;lon;timestamp;pressure;altitude;pressure_sealevel;temperature;humidity
35331;BME280;21441;52.190;20.910;2023-03-04T00:00:09;99860.53;;;-0.65;100.00
35331;BME280;21441;52.190;20.910;2023-03-04T00:02:57;99877.59;;;-0.59;100.00
35331;BME280;21441;52.190;20.910;2023-03-04T00:05:25;99861.03;;;-0.60;100.00
35331;BME280;21441;52.190;20.910;2023-03-04T00:07:52;99818.88;;;-0.81;100.00
35331;BME280;21441;52.190;20.910;2023-03-04T00:10:22;99847.22;;;-0.62;100.00
35331;BME280;21441;52.190;20.910;2023-03-04T00:12:50;99826.69;;;-0.68;100.00
35331;BME280;21441;52.190;20.910;2023-03-04T00:15:18;99852.06;;;-0.69;100.00
35331;BME280;21441;52.190;20.910;2023-03-04T00:17:45;99850.91;;;-0.65;100.00
35331;BME280;21441;52.190;20.910;2023-03-04T00:20:12;99860.94;;;-0.58;100.00
35331;BME280;21441;52.190;20.910;2023-03-04T00:22:39;99846.69;;;-0.54;100.00
35331;BME280;21441;52.190;20.910;2023-03-04T00:25:06;99847.03;;;-0.59;100.00
35331;BME280;21441;52.190;20.910;2023-03-04T00:27:33;99839.75;;;-0.55;100.00
35331;BME280;21441;52.190;20.910;2023-03-04T00:30:02;99809.63;;;-0.74;100.00
35331;BME280;21441;52.190;20.910;2023-03-04T00:32:29;99830.75;;;-0.64;100.00
35331;BME280;21441;52.190;20.910;2023-03-04T00:34:57;99827.81;;;-0.59;100.00
35331;BME280;21441;52.190;20.910;2023-03-04T00:37:24;99815.19;;;-0.66;100.00
35331;BME280;21441;52.190;20.910;2023-03-04T00:39:51;99800.38;;;-0.67;100.00
35331;BME280;21441;52.190;20.910;2023-03-04T00:42:18;99803.84;;;-0.66;100.00
35331;BME280;21441;52.190;20.910;2023-03-04T00:44:45;99798.78;;;-0.56;100.00
35331;BME280;21441;52.190;20.910;2023-03-04T00:47:15;99803.63;;;-0.63;100.00
35331;BME280;21441;52.190;20.910;2023-03-04T00:49:42;99793.75;;;-0.59;100.00
35331;BME280;21441;52.190;20.910;2023-03-04T00:52:09;99804.03;;;-0.56;100.00
35331;BME280;21441;52.190;20.910;2023-03-04T00:54:37;99783.91;;;-0.56;100.00
35331;BME280;21441;52.190;20.910;2023-03-04T00:57:04;99790.53;;;-0.63;100.00
35331;BME280;21441;52.190;20.910;2023-03-04T00:59:31;99761.19;;;-0.68;100.00
35331;BME280;21441;52.190;20.910;2023-03-04T01:01:58;99789.09;;;-0.67;100.00
35331;BME280;21441;52.190;20.910;2023-03-04T01:04:27;99781.72;;;-0.62;100.00
35331;BME280;21441;52.190;20.910;2023-03-04T01:06:54;99776.88;;;-0.55;100.00
35331;BME280;21441;52.190;20.910;2023-03-04T01:09:21;99777.94;;;-0.58;100.00
35331;BME280;21441;52.190;20.910;2023-03-04T01:11:48;99774.69;;;-0.62;100.00
35331;BME280;21441;52.190;20.910;2023-03-04T01:14:15;99784.84;;;-0.57;100.00
35331;BME280;21441;52.190;20.910;2023-03-04T01:16:42;99775.66;;;-0.63;100.00
35331;BME280;21441;52.190;20.910;2023-03-04T01:19:10;99757.94;;;-0.59;100.00
35331;BME280;21441;52.190;20.910;2023-03-04T01:21:38;99762.78;;;-0.66;100.00
35331;BME280;21441;52.190;20.910;2023-03-04T01:24:06;99747.88;;;-0.65;100.00
35331;BME280;21441;52.190;20.910;2023-03-04T01:26:33;99748.81;;;-0.66;100.00
35331;BME280;21441;52.190;20.910;2023-03-04T01:29:00;99718.16;;;-0.77;100.00
35331;BME280;21441;52.190;20.910;2023-03-04T01:31:27;99731.44;;;-0.67;100.00
35331;BME280;21441;52.190;20.910;2023-03-04T01:33:55;99703.66;;;-0.81;100.00
35331;BME280;21441;52.190;20.910;2023-03-04T01:36:22;99718.72;;;-0.85;100.00
35331;BME280;21441;52.190;20.910;2023-03-04T01:38:50;99702.91;;;-0.83;100.00
35331;BME280;21441;52.190;20.910;2023-03-04T01:41:20;99674.50;;;-0.76;100.00
35331;BME280;21441;52.190;20.910;2023-03-04T01:43:49;99648.13;;;-0.86;100.00
35331;BME280;21441;52.190;20.910;2023-03-04T01:46:16;99673.25;;;-0.84;100.00
35331;BME280;21441;52.190;20.910;2023-03-04T01:48:43;99668.97;;;-0.85;100.00
35331;BME280;21441;52.190;20.910;2023-03-04T01:51:11;99671.97;;;-0.78;100.00
35331;BME280;21441;52.190;20.910;2023-03-04T01:53:39;99655.16;;;-0.87;100.00
35331;BME280;21441;52.190;20.910;2023-03-04T01:56:12;99662.66;;;-0.82;100.00
35331;BME280;21441;52.190;20.910;2023-03-04T01:58:41;99646.84;;;-0.80;100.00
35331;BME280;21441;52.190;20.910;2023-03-04T02:01:08;99646.59;;;-0.77;100.00
35331;BME280;21441;52.190;20.910;2023-03-04T02:03:36;99639.72;;;-0.78;100.00
35331;BME280;21441;52.190;20.910;2023-03-04T02:06:04;99633.50;;;-0.77;100.00
35331;BME280;21441;52.190;20.910;2023-03-04T02:08:31;99612.22;;;-0.73;100.00
35331;BME280;21441;52.190;20.910;2023-03-04T02:10:58;99615.34;;;-0.68;100.00
35331;BME280;21441;52.190;20.910;2023-03-04T02:13:27;99603.53;;;-0.73;100.00
35331;BME280;21441;52.190;20.910;2023-03-04T02:15:54;99606.88;;;-0.71;100.00
35331;BME280;21441;52.190;20.910;2023-03-04T02:18:22;99603.41;;;-0.72;100.00
35331;BME280;21441;52.190;20.910;2023-03-04T02:20:54;99586.88;;;-0.72;100.00
35331;BME280;21441;52.190;20.910;2023-03-04T02:23:28;99617.06;;;-0.79;100.00
35331;BME280;21441;52.190;20.910;2023-03-04T02:26:08;99583.66;;;-0.76;100.00
35331;BME280;21441;52.190;20.910;2023-03-04T02:28:36;99589.63;;;-0.63;100.00
35331;BME280;21441;52.190;20.910;2023-03-04T02:31:03;99597.50;;;-0.63;100.00
35331;BME280;21441;52.190;20.910;2023-03-04T02:33:31;99596.75;;;-0.65;100.00
35331;BME280;21441;52.190;20.910;2023-03-04T02:35:58;99617.63;;;-0.63;100.00
35331;BME280;21441;52.190;20.910;2023-03-04T02:38:25;99605.34;;;-0.63;100.00
35331;BME280;21441;52.190;20.910;2023-03-04T02:40:52;99611.94;;;-0.57;100.00
35331;BME280;21441;52.190;20.910;2023-03-04T02:43:22;99610.50;;;-0.50;100.00
35331;BME280;21441;52.190;20.910;2023-03-04T02:45:49;99610.25;;;-0.47;100.00
35331;BME280;21441;52.190;20.910;2023-03-04T02:48:18;99611.22;;;-0.48;100.00
35331;BME280;21441;52.190;20.910;2023-03-04T02:50:46;99610.41;;;-0.48;100.00
35331;BME280;21441;52.190;20.910;2023-03-04T02:53:14;99608.81;;;-0.51;100.00
35331;BME280;21441;52.190;20.910;2023-03-04T02:55:41;99611.22;;;-0.48;100.00
35331;BME280;21441;52.190;20.910;2023-03-04T02:58:09;99608.72;;;-0.38;100.00
35331;BME280;21441;52.190;20.910;2023-03-04T03:00:38;99608.88;;;-0.39;100.00
35331;BME280;21441;52.190;20.910;2023-03-04T03:03:06;99599.56;;;-0.44;100.00
35331;BME280;21441;52.190;20.910;2023-03-04T03:05:33;99603.50;;;-0.38;100.00
35331;BME280;21441;52.190;20.910;2023-03-04T03:08:00;99595.25;;;-0.45;100.00
35331;BME280;21441;52.190;20.910;2023-03-04T03:10:27;99585.16;;;-0.38;100.00
35331;BME280;21441;52.190;20.910;2023-03-04T03:12:55;99601.75;;;-0.26;100.00
35331;BME280;21441;52.190;20.910;2023-03-04T03:15:22;99599.22;;;-0.28;100.00
35331;BME280;21441;52.190;20.910;2023-03-04T03:17:50;99595.28;;;-0.22;100.00
35331;BME280;21441;52.190;20.910;2023-03-04T03:20:18;99598.97;;;-0.25;100.00
35331;BME280;21441;52.190;20.910;2023-03-04T03:22:45;99595.16;;;-0.21;100.00
35331;BME280;21441;52.190;20.910;2023-03-04T03:25:13;99588.50;;;-0.25;100.00
35331;BME280;21441;52.190;20.910;2023-03-04T03:27:40;99581.50;;;-0.13;100.00
35331;BME280;21441;52.190;20.910;2023-03-04T03:30:08;99563.81;;;-0.22;100.00
35331;BME280;21441;52.190;20.910;2023-03-04T03:32:36;99585.88;;;-0.13;100.00
35331;BME280;21441;52.190;20.910;2023-03-04T03:35:04;99582.78;;;-0.07;100.00
35331;BME280;21441;52.190;20.910;2023-03-04T03:37:32;99575.06;;;-0.09;100.00
35331;BME280;21441;52.190;20.910;2023-03-04T03:39:59;99571.72;;;0.01;100.00
35331;BME280;21441;52.190;20.910;2023-03-04T03:42:26;99567.53;;;-0.02;100.00
35331;BME280;21441;52.190;20.910;2023-03-04T03:44:53;99577.41;;;0.06;100.00
35331;BME280;21441;52.190;20.910;2023-03-04T03:47:20;99571.25;;;0.07;100.00
35331;BME280;21441;52.190;20.910;2023-03-04T03:49:47;99565.38;;;0.14;100.00
35331;BME280;21441;52.190;20.910;2023-03-04T03:52:16;99568.00;;;0.14;100.00
35331;BME280;21441;52.190;20.910;2023-03-04T03:54:43;99553.56;;;0.09;100.00
35331;BME280;21441;52.190;20.910;2023-03-04T03:57:10;99561.66;;;0.17;100.00
35331;BME280;21441;52.190;20.910;2023-03-04T03:59:37;99561.44;;;0.20;100.00
35331;BME280;21441;52.190;20.910;2023-03-04T04:02:05;99565.59;;;0.23;100.00
35331;BME280;21441;52.190;20.910;2023-03-04T04:04:32;99561.78;;;0.27;100.00
35331;BME280;21441;52.190;20.910;2023-03-04T04:06:59;99548.53;;;0.28;100.00
35331;BME280;21441;52.190;20.910;2023-03-04T04:09:27;99551.88;;;0.30;100.00
35331;BME280;21441;52.190;20.910;2023-03-04T04:11:55;99534.84;;;0.25;100.00
35331;BME280;21441;52.190;20.910;2023-03-04T04:14:22;99548.31;;;0.31;100.00
35331;BME280;21441;52.190;20.910;2023-03-04T04:16:49;99556.75;;;0.46;100.00
35331;BME280;21441;52.190;20.910;2023-03-04T04:19:16;99552.91;;;0.50;100.00
35331;BME280;21441;52.190;20.910;2023-03-04T04:21:44;99554.31;;;0.54;100.00
35331;BME280;21441;52.190;20.910;2023-03-04T04:24:11;99543.84;;;0.43;100.00
35331;BME280;21441;52.190;20.910;2023-03-04T04:26:40;99547.78;;;0.49;100.00
35331;BME280;21441;52.190;20.910;2023-03-04T04:29:07;99558.28;;;0.49;100.00
35331;BME280;21441;52.190;20.910;2023-03-04T04:31:35;99552.78;;;0.52;100.00
35331;BME280;21441;52.190;20.910;2023-03-04T04:34:02;99543.25;;;0.51;100.00
35331;BME280;21441;52.190;20.910;2023-03-04T04:36:29;99557.56;;;0.47;100.00
35331;BME280;21441;52.190;20.910;2023-03-04T04:38:56;99545.75;;;0.41;100.00
35331;BME280;21441;52.190;20.910;2023-03-04T04:41:24;99549.22;;;0.53;100.00
35331;BME280;21441;52.190;20.910;2023-03-04T04:43:53;99548.94;;;0.56;100.00
35331;BME280;21441;52.190;20.910;2023-03-04T04:46:20;99540.47;;;0.52;100.00
35331;BME280;21441;52.190;20.910;2023-03-04T04:48:47;99535.22;;;0.52;100.00
35331;BME280;21441;52.190;20.910;2023-03-04T04:51:14;99536.78;;;0.55;100.00
35331;BME280;21441;52.190;20.910;2023-03-04T04:53:41;99540.47;;;0.52;100.00
35331;BME280;21441;52.190;20.910;2023-03-04T04:56:10;99527.84;;;0.57;100.00
35331;BME280;21441;52.190;20.910;2023-03-04T04:58:37;99527.16;;;0.44;100.00
35331;BME280;21441;52.190;20.910;2023-03-04T05:01:06;99532.28;;;0.46;100.00
35331;BME280;21441;52.190;20.910;2023-03-04T05:03:34;99533.13;;;0.46;100.00
35331;BME280;21441;52.190;20.910;2023-03-04T05:06:02;99537.78;;;0.43;100.00
35331;BME280;21441;52.190;20.910;2023-03-04T05:08:30;99530.72;;;0.43;100.00
35331;BME280;21441;52.190;20.910;2023-03-04T05:10:57;99527.16;;;0.44;100.00
35331;BME280;21441;52.190;20.910;2023-03-04T05:13:24;99534.41;;;0.52;100.00
35331;BME280;21441;52.190;20.910;2023-03-04T05:15:51;99529.75;;;0.55;100.00
35331;BME280;21441;52.190;20.910;2023-03-04T05:18:20;99522.47;;;0.48;100.00
35331;BME280;21441;52.190;20.910;2023-03-04T05:20:49;99531.19;;;0.59;100.00
35331;BME280;21441;52.190;20.910;2023-03-04T05:23:16;99522.00;;;0.54;100.00
35331;BME280;21441;52.190;20.910;2023-03-04T05:25:43;99523.31;;;0.48;100.00
35331;BME280;21441;52.190;20.910;2023-03-04T05:28:11;99512.22;;;0.56;100.00
35331;BME280;21441;52.190;20.910;2023-03-04T05:30:39;99509.84;;;0.53;100.00
35331;BME280;21441;52.190;20.910;2023-03-04T05:33:06;99510.44;;;0.45;100.00
35331;BME280;21441;52.190;20.910;2023-03-04T05:35:35;99510.34;;;0.47;100.00
35331;BME280;21441;52.190;20.910;2023-03-04T05:38:03;99511.16;;;0.47;100.00
35331;BME280;21441;52.190;20.910;2023-03-04T05:40:31;99518.66;;;0.52;100.00
35331;BME280;21441;52.190;20.910;2023-03-04T05:42:58;99509.00;;;0.52;100.00
35331;BME280;21441;52.190;20.910;2023-03-04T05:45:25;99516.53;;;0.46;100.00
35331;BME280;21441;52.190;20.910;2023-03-04T05:47:53;99516.41;;;0.47;100.00
35331;BME280;21441;52.190;20.910;2023-03-04T05:50:21;99507.44;;;0.50;100.00
35331;BME280;21441;52.190;20.910;2023-03-04T05:52:49;99505.09;;;0.47;100.00
35331;BME280;21441;52.190;20.910;2023-03-04T05:55:17;99509.50;;;0.46;100.00
35331;BME280;21441;52.190;20.910;2023-03-04T05:57:45;99494.22;;;0.51;100.00
35331;BME280;21441;52.190;20.910;2023-03-04T06:00:13;99498.88;;;0.48;100.00
35331;BME280;21441;52.190;20.910;2023-03-04T06:02:41;99491.47;;;0.41;100.00
35331;BME280;21441;52.190;20.910;2023-03-04T06:05:09;99502.31;;;0.48;100.00
35331;BME280;21441;52.190;20.910;2023-03-04T06:07:36;99501.88;;;0.43;100.00
35331;BME280;21441;52.190;20.910;2023-03-04T06:10:06;99492.84;;;0.36;100.00
35331;BME280;21441;52.190;20.910;2023-03-04T06:12:33;99492.44;;;0.40;100.00
35331;BME280;21441;52.190;20.910;2023-03-04T06:15:00;99498.38;;;0.54;100.00
35331;BME280;21441;52.190;20.910;2023-03-04T06:17:28;99484.28;;;0.55;100.00
35331;BME280;21441;52.190;20.910;2023-03-04T06:19:55;99477.88;;;0.48;100.00
35331;BME280;21441;52.190;20.910;2023-03-04T06:22:22;99481.69;;;0.44;100.00
35331;BME280;21441;52.190;20.910;2023-03-04T06:24:49;99486.94;;;0.44;100.00
35331;BME280;21441;52.190;20.910;2023-03-04T06:27:18;99487.09;;;0.42;100.00
35331;BME280;21441;52.190;20.910;2023-03-04T06:29:45;99471.19;;;0.44;100.00
35331;BME280;21441;52.190;20.910;2023-03-04T06:32:12;99480.75;;;0.45;100.00
35331;BME280;21441;52.190;20.910;2023-03-04T06:34:39;99458.47;;;0.39;100.00
35331;BME280;21441;52.190;20.910;2023-03-04T06:37:06;99485.03;;;0.46;100.00
35331;BME280;21441;52.190;20.910;2023-03-04T06:39:34;99487.09;;;0.42;100.00
35331;BME280;21441;52.190;20.910;2023-03-04T06:42:01;99472.78;;;0.46;100.00
35331;BME280;21441;52.190;20.910;2023-03-04T06:44:29;99479.41;;;0.50;100.00
35331;BME280;21441;52.190;20.910;2023-03-04T06:46:56;99491.69;;;0.50;100.00
35331;BME280;21441;52.190;20.910;2023-03-04T06:49:24;99497.69;;;0.40;100.00
35331;BME280;21441;52.190;20.910;2023-03-04T06:51:51;99493.06;;;0.44;100.00
35331;BME280;21441;52.190;20.910;2023-03-04T06:54:18;99489.72;;;0.42;100.00
35331;BME280;21441;52.190;20.910;2023-03-04T06:56:45;99483.03;;;0.38;100.00
35331;BME280;21441;52.190;20.910;2023-03-04T06:59:13;99482.78;;;0.41;100.00
35331;BME280;21441;52.190;20.910;2023-03-04T07:01:41;99489.84;;;0.40;100.00
35331;BME280;21441;52.190;20.910;2023-03-04T07:04:08;99478.50;;;0.40;100.00
35331;BME280;21441;52.190;20.910;2023-03-04T07:06:35;99481.84;;;0.42;100.00
35331;BME280;21441;52.190;20.910;2023-03-04T07:09:03;99486.84;;;0.45;100.00
35331;BME280;21441;52.190;20.910;2023-03-04T07:11:30;99490.44;;;0.44;100.00
35331;BME280;21441;52.190;20.910;2023-03-04T07:13:57;99483.22;;;0.57;100.00
35331;BME280;21441;52.190;20.910;2023-03-04T07:16:24;99456.63;;;0.51;100.00
35331;BME280;21441;52.190;20.910;2023-03-04T07:18:52;99490.75;;;0.51;100.00
35331;BME280;21441;52.190;20.910;2023-03-04T07:21:19;99480.59;;;0.57;100.00
35331;BME280;21441;52.190;20.910;2023-03-04T07:23:47;99482.50;;;0.55;100.00
35331;BME280;21441;52.190;20.910;2023-03-04T07:26:14;99465.22;;;0.53;100.00
35331;BME280;21441;52.190;20.910;2023-03-04T07:28:41;99481.78;;;0.53;100.00
35331;BME280;21441;52.190;20.910;2023-03-04T07:31:12;99485.84;;;0.57;100.00
35331;BME280;21441;52.190;20.910;2023-03-04T07:33:44;99489.53;;;0.55;100.00
35331;BME280;21441;52.190;20.910;2023-03-04T07:36:12;99460.53;;;0.56;100.00
35331;BME280;21441;52.190;20.910;2023-03-04T07:38:42;99442.03;;;0.58;100.00
35331;BME280;21441;52.190;20.910;2023-03-04T07:41:09;99467.19;;;0.60;100.00
35331;BME280;21441;52.190;20.910;2023-03-04T07:43:36;99461.34;;;0.68;100.00
35331;BME280;21441;52.190;20.910;2023-03-04T07:46:03;99444.22;;;0.74;100.00
35331;BME280;21441;52.190;20.910;2023-03-04T07:48:31;99459.91;;;0.64;100.00
35331;BME280;21441;52.190;20.910;2023-03-04T07:51:01;99443.31;;;0.64;100.00
35331;BME280;21441;52.190;20.910;2023-03-04T07:53:31;99452.22;;;0.72;100.00
35331;BME280;21441;52.190;20.910;2023-03-04T07:55:58;99444.00;;;0.77;100.00
35331;BME280;21441;52.190;20.910;2023-03-04T07:58:25;99448.84;;;0.81;100.00
35331;BME280;21441;52.190;20.910;2023-03-04T08:00:52;99438.16;;;0.73;100.00
35331;BME280;21441;52.190;20.910;2023-03-04T08:03:20;99440.44;;;0.67;100.00
35331;BME280;21441;52.190;20.910;2023-03-04T08:05:47;99451.28;;;0.73;100.00
35331;BME280;21441;52.190;20.910;2023-03-04T08:08:14;99443.13;;;0.76;100.00
35331;BME280;21441;52.190;20.910;2023-03-04T08:10:42;99450.78;;;0.79;100.00
35331;BME280;21441;52.190;20.910;2023-03-04T08:13:10;99445.53;;;0.79;100.00
35331;BME280;21441;52.190;20.910;2023-03-04T08:15:40;99437.09;;;0.86;100.00
35331;BME280;21441;52.190;20.910;2023-03-04T08:18:08;99438.78;;;0.87;100.00
35331;BME280;21441;52.190;20.910;2023-03-04T08:20:35;99439.56;;;0.77;100.00
35331;BME280;21441;52.190;20.910;2023-03-04T08:23:02;99442.19;;;0.77;100.00
35331;BME280;21441;52.190;20.910;2023-03-04T08:25:29;99434.31;;;0.77;100.00
35331;BME280;21441;52.190;20.910;2023-03-04T08:27:58;99430.84;;;0.98;100.00
35331;BME280;21441;52.190;20.910;2023-03-04T08:30:25;99432.25;;;0.81;100.00
35331;BME280;21441;52.190;20.910;2023-03-04T08:32:53;99391.72;;;0.74;100.00
35331;BME280;21441;52.190;20.910;2023-03-04T08:35:20;99425.84;;;0.95;100.00
35331;BME280;21441;52.190;20.910;2023-03-04T08:37:47;99425.34;;;0.80;100.00
35331;BME280;21441;52.190;20.910;2023-03-04T08:40:14;99429.19;;;0.76;100.00
35331;BME280;21441;52.190;20.910;2023-03-04T08:42:42;99420.59;;;0.74;100.00
35331;BME280;21441;52.190;20.910;2023-03-04T08:45:10;99421.34;;;0.86;100.00
35331;BME280;21441;52.190;20.910;2023-03-04T08:47:37;99428.91;;;0.79;100.00
35331;BME280;21441;52.190;20.910;2023-03-04T08:50:05;99400.88;;;0.58;100.00
35331;BME280;21441;52.190;20.910;2023-03-04T08:52:33;99423.94;;;0.76;100.00
35331;BME280;21441;52.190;20.910;2023-03-04T08:55:00;99424.63;;;0.78;100.00
35331;BME280;21441;52.190;20.910;2023-03-04T08:57:27;99413.66;;;0.94;100.00
35331;BME280;21441;52.190;20.910;2023-03-04T08:59:55;99429.94;;;0.88;100.00
35331;BME280;21441;52.190;20.910;2023-03-04T09:02:23;99415.97;;;0.87;100.00
35331;BME280;21441;52.190;20.910;2023-03-04T09:04:50;99426.75;;;0.84;100.00
35331;BME280;21441;52.190;20.910;2023-03-04T09:07:17;99413.13;;;0.90;100.00
35331;BME280;21441;52.190;20.910;2023-03-04T09:09:44;99424.06;;;0.95;100.00
35331;BME280;21441;52.190;20.910;2023-03-04T09:12:12;99404.06;;;0.83;100.00
35331;BME280;21441;52.190;20.910;2023-03-04T09:14:39;99413.47;;;0.86;100.00
35331;BME280;21441;52.190;20.910;2023-03-04T09:17:06;99389.59;;;0.89;100.00
35331;BME280;21441;52.190;20.910;2023-03-04T09:19:36;99397.41;;;1.00;100.00
35331;BME280;21441;52.190;20.910;2023-03-04T09:22:03;99358.41;;;1.05;100.00
35331;BME280;21441;52.190;20.910;2023-03-04T09:24:30;99394.25;;;1.06;100.00
35331;BME280;21441;52.190;20.910;2023-03-04T09:26:57;99337.06;;;0.89;100.00
35331;BME280;21441;52.190;20.910;2023-03-04T09:29:24;99383.78;;;1.16;100.00
35331;BME280;21441;52.190;20.910;2023-03-04T09:31:51;99377.06;;;1.23;100.00
35331;BME280;21441;52.190;20.910;2023-03-04T09:34:19;99382.84;;;1.27;100.00
35331;BME280;21441;52.190;20.910;2023-03-04T09:36:47;99384.69;;;1.36;100.00
35331;BME280;21441;52.190;20.910;2023-03-04T09:39:14;99371.28;;;1.39;100.00
35331;BME280;21441;52.190;20.910;2023-03-04T09:41:42;99388.31;;;1.14;100.00
35331;BME280;21441;52.190;20.910;2023-03-04T09:44:14;99378.97;;;1.21;100.00
35331;BME280;21441;52.190;20.910;2023-03-04T09:46:42;99377.00;;;1.13;100.00
35331;BME280;21441;52.190;20.910;2023-03-04T09:49:11;99357.06;;;1.11;100.00
35331;BME280;21441;52.190;20.910;2023-03-04T09:51:40;99373.03;;;1.29;100.00
35331;BME280;21441;52.190;20.910;2023-03-04T09:54:13;99363.50;;;1.28;100.00
35331;BME280;21441;52.190;20.910;2023-03-04T09:56:43;99364.22;;;1.30;100.00
35331;BME280;21441;52.190;20.910;2023-03-04T09:59:14;99358.44;;;1.46;100.00
35331;BME280;21441;52.190;20.910;2023-03-04T10:01:44;99363.28;;;1.50;100.00
35331;BME280;21441;52.190;20.910;2023-03-04T10:04:14;99364.81;;;1.43;100.00
35331;BME280;21441;52.190;20.910;2023-03-04T10:06:43;99358.03;;;1.50;100.00
35331;BME280;21441;52.190;20.910;2023-03-04T10:09:18;99349.16;;;1.41;100.00
35331;BME280;21441;52.190;20.910;2023-03-04T10:11:47;99339.72;;;1.29;100.00
35331;BME280;21441;52.190;20.910;2023-03-04T10:14:19;99360.44;;;1.63;100.00
35331;BME280;21441;52.190;20.910;2023-03-04T10:16:54;99346.56;;;1.61;100.00
35331;BME280;21441;52.190;20.910;2023-03-04T10:19:27;99350.59;;;1.75;100.00
35331;BME280;21441;52.190;20.910;2023-03-04T10:21:56;99357.50;;;1.66;100.00
35331;BME280;21441;52.190;20.910;2023-03-04T10:24:27;99357.63;;;1.64;100.00
35331;BME280;21441;52.190;20.910;2023-03-04T10:26:57;99336.88;;;1.61;100.00
35331;BME280;21441;52.190;20.910;2023-03-04T10:29:26;99324.56;;;1.52;100.00
35331;BME280;21441;52.190;20.910;2023-03-04T10:31:54;99344.50;;;1.64;100.00
35331;BME280;21441;52.190;20.910;2023-03-04T10:34:21;99330.41;;;1.85;100.00
35331;BME280;21441;52.190;20.910;2023-03-04T10:36:52;99325.13;;;1.75;100.00
35331;BME280;21441;52.190;20.910;2023-03-04T10:39:21;99343.28;;;1.78;100.00
35331;BME280;21441;52.190;20.910;2023-03-04T10:41:56;99325.13;;;1.75;100.00
35331;BME280;21441;52.190;20.910;2023-03-04T10:44:24;99324.72;;;1.80;100.00
35331;BME280;21441;52.190;20.910;2023-03-04T10:46:52;99316.44;;;1.84;100.00
35331;BME280;21441;52.190;20.910;2023-03-04T10:49:19;99316.72;;;2.01;100.00
35331;BME280;21441;52.190;20.910;2023-03-04T10:51:47;99306.06;;;1.83;100.00
35331;BME280;21441;52.190;20.910;2023-03-04T10:54:19;99317.25;;;1.75;100.00
35331;BME280;21441;52.190;20.910;2023-03-04T10:56:56;99302.31;;;1.76;100.00
35331;BME280;21441;52.190;20.910;2023-03-04T10:59:31;99306.06;;;1.83;100.00
35331;BME280;21441;52.190;20.910;2023-03-04T11:02:00;99302.31;;;1.76;100.00
35331;BME280;21441;52.190;20.910;2023-03-04T11:04:31;99291.09;;;1.74;100.00
35331;BME280;21441;52.190;20.910;2023-03-04T11:06:59;99303.69;;;1.80;100.00
35331;BME280;21441;52.190;20.910;2023-03-04T11:09:27;99294.56;;;1.94;100.00
35331;BME280;21441;52.190;20.910;2023-03-04T11:11:57;99294.97;;;1.99;100.00
35331;BME280;21441;52.190;20.910;2023-03-04T11:14:25;99289.59;;;2.00;100.00
35331;BME280;21441;52.190;20.910;2023-03-04T11:16:55;99301.31;;;1.86;100.00
35331;BME280;21441;52.190;20.910;2023-03-04T11:19:23;99292.06;;;1.92;100.00
35331;BME280;21441;52.190;20.910;2023-03-04T11:21:54;99296.06;;;2.06;100.00
35331;BME280;21441;52.190;20.910;2023-03-04T11:24:23;99285.44;;;1.98;100.00
35331;BME280;21441;52.190;20.910;2023-03-04T11:26:52;99298.97;;;1.93;100.00
35331;BME280;21441;52.190;20.910;2023-03-04T11:29:23;99289.69;;;2.09;100.00
35331;BME280;21441;52.190;20.910;2023-03-04T11:31:52;99300.53;;;2.15;100.00
35331;BME280;21441;52.190;20.910;2023-03-04T11:34:26;99272.28;;;1.98;100.00
35331;BME280;21441;52.190;20.910;2023-03-04T11:36:56;99279.75;;;2.02;100.00
35331;BME280;21441;52.190;20.910;2023-03-04T11:39:29;99284.59;;;2.07;100.00
35331;BME280;21441;52.190;20.910;2023-03-04T11:42:00;99275.03;;;2.16;100.00
35331;BME280;21441;52.190;20.910;2023-03-04T11:44:30;99270.03;;;2.13;100.00
35331;BME280;21441;52.190;20.910;2023-03-04T11:47:00;99278.50;;;2.06;100.00
35331;BME280;21441;52.190;20.910;2023-03-04T11:49:37;99277.09;;;2.22;100.00
35331;BME280;21441;52.190;20.910;2023-03-04T11:52:13;99265.88;;;2.20;100.00
35331;BME280;21441;52.190;20.910;2023-03-04T11:54:44;99280.00;;;2.19;100.00
35331;BME280;21441;52.190;20.910;2023-03-04T11:57:18;99268.78;;;2.17;100.00
35331;BME280;21441;52.190;20.910;2023-03-04T11:59:56;99285.53;;;2.25;100.00
35331;BME280;21441;52.190;20.910;2023-03-04T12:02:28;99271.25;;;2.28;100.00
35331;BME280;21441;52.190;20.910;2023-03-04T12:05:18;99272.22;;;2.27;100.00
35331;BME280;21441;52.190;20.910;2023-03-04T12:07:54;99258.50;;;2.23;100.00
35331;BME280;21441;52.190;20.910;2023-03-04T12:10:27;99272.78;;;2.21;100.00
35331;BME280;21441;52.190;20.910;2023-03-04T12:13:01;99263.69;;;2.15;100.00
35331;BME280;21441;52.190;20.910;2023-03-04T12:15:32;99264.47;;;2.35;100.00
35331;BME280;21441;52.190;20.910;2023-03-04T12:18:20;99268.75;;;2.36;100.00
35331;BME280;21441;52.190;20.910;2023-03-04T12:21:00;99276.69;;;2.26;100.00
35331;BME280;21441;52.190;20.910;2023-03-04T12:23:36;99269.03;;;2.33;100.00
35331;BME280;21441;52.190;20.910;2023-03-04T12:26:06;99272.63;;;2.32;100.00
35331;BME280;21441;52.190;20.910;2023-03-04T12:28:42;99272.31;;;2.45;100.00
35331;BME280;21441;52.190;20.910;2023-03-04T12:31:24;99276.34;;;2.49;100.00
35331;BME280;21441;52.190;20.910;2023-03-04T12:33:58;99277.72;;;2.53;100.00
35331;BME280;21441;52.190;20.910;2023-03-04T12:36:32;99274.72;;;2.76;100.00
35331;BME280;21441;52.190;20.910;2023-03-04T12:39:06;99270.84;;;2.80;100.00
35331;BME280;21441;52.190;20.910;2023-03-04T12:41:41;99267.38;;;2.79;100.00
35331;BME280;21441;52.190;20.910;2023-03-04T12:44:12;99279.78;;;2.50;100.00
35331;BME280;21441;52.190;20.910;2023-03-04T12:46:45;99267.88;;;2.55;100.00
35331;BME280;21441;52.190;20.910;2023-03-04T12:49:21;99263.50;;;2.74;100.00
35331;BME280;21441;52.190;20.910;2023-03-04T12:51:53;99257.84;;;2.68;100.00
35331;BME280;21441;52.190;20.910;2023-03-04T12:54:27;99260.72;;;2.75;100.00